sensor_id;sensor_type;location;lat;lon;timestamp;P1;durP1;ratioP1;P2;durP2;ratioP2
74926;SDS011;63488;48.092;-1.640;2023-08-08T00:00:07;2.88;;;1.13;;
74926;SDS011;63488;48.092;-1.640;2023-08-08T00:02:34;4.93;;;0.90;;
74926;SDS011;63488;48.092;-1.640;2023-08-08T00:04:59;8.40;;;1.23;;
74926;SDS011;63488;48.092;-1.640;2023-08-08T00:07:24;6.30;;;1.00;;
74926;SDS011;63488;48.092;-1.640;2023-08-08T00:09:50;4.47;;;1.27;;
74926;SDS011;63488;48.092;-1.640;2023-08-08T00:12:15;5.90;;;1.13;;
74926;SDS011;63488;48.092;-1.640;2023-08-08T00:14:41;4.93;;;1.02;;
74926;SDS011;63488;48.092;-1.640;2023-08-08T00:17:06;6.53;;;1.10;;
74926;SDS011;63488;48.092;-1.640;2023-08-08T00:19:31;4.95;;;1.27;;
74926;SDS011;63488;48.092;-1.640;2023-08-08T00:21:57;5.15;;;1.17;;
74926;SDS011;63488;48.092;-1.640;2023-08-08T00:24:22;4.82;;;1.00;;
74926;SDS011;63488;48.092;-1.640;2023-08-08T00:26:47;4.53;;;0.88;;
74926;SDS011;63488;48.092;-1.640;2023-08-08T00:29:13;2.95;;;1.10;;
74926;SDS011;63488;48.092;-1.640;2023-08-08T00:31:38;5.75;;;1.17;;
74926;SDS011;63488;48.092;-1.640;2023-08-08T00:34:03;11.50;;;1.60;;
74926;SDS011;63488;48.092;-1.640;2023-08-08T00:36:29;4.75;;;1.40;;
74926;SDS011;63488;48.092;-1.640;2023-08-08T00:38:54;4.43;;;1.02;;
74926;SDS011;63488;48.092;-1.640;2023-08-08T00:41:19;3.58;;;1.00;;
74926;SDS011;63488;48.092;-1.640;2023-08-08T00:43:45;4.65;;;1.10;;
74926;SDS011;63488;48.092;-1.640;2023-08-08T00:46:10;6.25;;;1.20;;
74926;SDS011;63488;48.092;-1.640;2023-08-08T00:48:36;6.00;;;1.38;;
74926;SDS011;63488;48.092;-1.640;2023-08-08T00:51:01;5.43;;;1.08;;
74926;SDS011;63488;48.092;-1.640;2023-08-08T00:53:27;6.68;;;1.20;;
74926;SDS011;63488;48.092;-1.640;2023-08-08T00:55:53;3.70;;;0.90;;
74926;SDS011;63488;48.092;-1.640;2023-08-08T00:58:19;6.75;;;1.23;;
74926;SDS011;63488;48.092;-1.640;2023-08-08T01:00:44;5.32;;;1.63;;
74926;SDS011;63488;48.092;-1.640;2023-08-08T01:03:10;3.28;;;1.00;;
74926;SDS011;63488;48.092;-1.640;2023-08-08T01:05:37;6.68;;;1.48;;
74926;SDS011;63488;48.092;-1.640;2023-08-08T01:08:04;4.43;;;1.40;;
74926;SDS011;63488;48.092;-1.640;2023-08-08T01:10:29;3.42;;;0.90;;
74926;SDS011;63488;48.092;-1.640;2023-08-08T01:12:59;3.58;;;1.10;;
74926;SDS011;63488;48.092;-1.640;2023-08-08T01:15:25;5.68;;;1.13;;
74926;SDS011;63488;48.092;-1.640;2023-08-08T01:17:51;4.88;;;1.10;;
74926;SDS011;63488;48.092;-1.640;2023-08-08T01:20:17;4.55;;;1.48;;
74926;SDS011;63488;48.092;-1.640;2023-08-08T01:22:45;5.50;;;1.00;;
74926;SDS011;63488;48.092;-1.640;2023-08-08T01:25:13;3.45;;;0.90;;
74926;SDS011;63488;48.092;-1.640;2023-08-08T01:27:39;7.22;;;1.38;;
74926;SDS011;63488;48.092;-1.640;2023-08-08T01:30:06;6.65;;;1.35;;
74926;SDS011;63488;48.092;-1.640;2023-08-08T01:32:32;3.58;;;0.93;;
74926;SDS011;63488;48.092;-1.640;2023-08-08T01:34:57;6.72;;;1.45;;
74926;SDS011;63488;48.092;-1.640;2023-08-08T01:37:25;8.95;;;1.10;;
74926;SDS011;63488;48.092;-1.640;2023-08-08T01:39:54;6.30;;;1.67;;
74926;SDS011;63488;48.092;-1.640;2023-08-08T01:42:20;7.20;;;1.40;;
74926;SDS011;63488;48.092;-1.640;2023-08-08T01:44:46;4.88;;;1.67;;
74926;SDS011;63488;48.092;-1.640;2023-08-08T01:47:12;5.35;;;1.35;;
74926;SDS011;63488;48.092;-1.640;2023-08-08T01:49:37;5.57;;;1.48;;
74926;SDS011;63488;48.092;-1.640;2023-08-08T01:52:03;4.70;;;1.40;;
74926;SDS011;63488;48.092;-1.640;2023-08-08T01:54:28;3.72;;;1.10;;
74926;SDS011;63488;48.092;-1.640;2023-08-08T01:56:54;4.88;;;1.50;;
74926;SDS011;63488;48.092;-1.640;2023-08-08T01:59:19;6.57;;;1.35;;
74926;SDS011;63488;48.092;-1.640;2023-08-08T02:01:44;5.68;;;1.20;;
74926;SDS011;63488;48.092;-1.640;2023-08-08T02:04:10;6.78;;;1.17;;
74926;SDS011;63488;48.092;-1.640;2023-08-08T02:06:35;4.07;;;1.05;;
74926;SDS011;63488;48.092;-1.640;2023-08-08T02:09:00;4.03;;;1.10;;
74926;SDS011;63488;48.092;-1.640;2023-08-08T02:11:26;7.10;;;1.45;;
74926;SDS011;63488;48.092;-1.640;2023-08-08T02:13:51;5.53;;;1.08;;
74926;SDS011;63488;48.092;-1.640;2023-08-08T02:16:17;5.65;;;1.25;;
74926;SDS011;63488;48.092;-1.640;2023-08-08T02:18:42;8.15;;;1.63;;
74926;SDS011;63488;48.092;-1.640;2023-08-08T02:21:08;3.53;;;1.25;;
74926;SDS011;63488;48.092;-1.640;2023-08-08T02:23:33;4.65;;;1.08;;
74926;SDS011;63488;48.092;-1.640;2023-08-08T02:25:59;6.60;;;1.20;;
74926;SDS011;63488;48.092;-1.640;2023-08-08T02:28:24;6.40;;;1.45;;
74926;SDS011;63488;48.092;-1.640;2023-08-08T02:30:49;5.07;;;1.25;;
74926;SDS011;63488;48.092;-1.640;2023-08-08T02:33:15;4.28;;;1.30;;
74926;SDS011;63488;48.092;-1.640;2023-08-08T02:35:40;5.93;;;1.38;;
74926;SDS011;63488;48.092;-1.640;2023-08-08T02:38:05;4.55;;;1.35;;
74926;SDS011;63488;48.092;-1.640;2023-08-08T02:40:31;3.78;;;1.17;;
74926;SDS011;63488;48.092;-1.640;2023-08-08T02:42:58;4.85;;;1.00;;
74926;SDS011;63488;48.092;-1.640;2023-08-08T02:45:23;9.18;;;1.50;;
74926;SDS011;63488;48.092;-1.640;2023-08-08T02:47:48;5.03;;;1.10;;
74926;SDS011;63488;48.092;-1.640;2023-08-08T02:50:14;5.10;;;1.30;;
74926;SDS011;63488;48.092;-1.640;2023-08-08T02:52:39;5.85;;;1.10;;
74926;SDS011;63488;48.092;-1.640;2023-08-08T02:55:05;6.22;;;1.30;;
74926;SDS011;63488;48.092;-1.640;2023-08-08T02:57:30;2.65;;;1.20;;
74926;SDS011;63488;48.092;-1.640;2023-08-08T02:59:56;3.97;;;1.40;;
74926;SDS011;63488;48.092;-1.640;2023-08-08T03:02:21;3.47;;;1.50;;
74926;SDS011;63488;48.092;-1.640;2023-08-08T03:04:46;5.13;;;1.35;;
74926;SDS011;63488;48.092;-1.640;2023-08-08T03:07:12;4.32;;;1.13;;
74926;SDS011;63488;48.092;-1.640;2023-08-08T03:09:37;6.03;;;1.30;;
74926;SDS011;63488;48.092;-1.640;2023-08-08T03:12:02;5.63;;;1.40;;
74926;SDS011;63488;48.092;-1.640;2023-08-08T03:14:28;7.85;;;1.33;;
74926;SDS011;63488;48.092;-1.640;2023-08-08T03:16:53;6.88;;;1.33;;
74926;SDS011;63488;48.092;-1.640;2023-08-08T03:19:18;4.32;;;1.42;;
74926;SDS011;63488;48.092;-1.640;2023-08-08T03:21:44;4.38;;;1.20;;
74926;SDS011;63488;48.092;-1.640;2023-08-08T03:24:09;6.55;;;1.30;;
74926;SDS011;63488;48.092;-1.640;2023-08-08T03:26:34;11.80;;;1.60;;
74926;SDS011;63488;48.092;-1.640;2023-08-08T03:29:00;4.78;;;1.40;;
74926;SDS011;63488;48.092;-1.640;2023-08-08T03:31:25;5.00;;;1.60;;
74926;SDS011;63488;48.092;-1.640;2023-08-08T03:33:52;6.97;;;1.85;;
74926;SDS011;63488;48.092;-1.640;2023-08-08T03:36:17;4.68;;;1.17;;
74926;SDS011;63488;48.092;-1.640;2023-08-08T03:38:43;7.47;;;1.40;;
74926;SDS011;63488;48.092;-1.640;2023-08-08T03:41:11;5.28;;;1.35;;
74926;SDS011;63488;48.092;-1.640;2023-08-08T03:43:37;4.65;;;1.40;;
74926;SDS011;63488;48.092;-1.640;2023-08-08T03:46:03;6.32;;;1.55;;
74926;SDS011;63488;48.092;-1.640;2023-08-08T03:48:28;4.53;;;1.10;;
74926;SDS011;63488;48.092;-1.640;2023-08-08T03:50:53;6.57;;;1.73;;
74926;SDS011;63488;48.092;-1.640;2023-08-08T03:53:19;5.82;;;1.50;;
74926;SDS011;63488;48.092;-1.640;2023-08-08T03:55:44;3.30;;;1.30;;
74926;SDS011;63488;48.092;-1.640;2023-08-08T03:58:10;4.95;;;1.42;;
74926;SDS011;63488;48.092;-1.640;2023-08-08T04:00:35;4.68;;;1.25;;
74926;SDS011;63488;48.092;-1.640;2023-08-08T04:03:01;6.60;;;1.30;;
74926;SDS011;63488;48.092;-1.640;2023-08-08T04:05:26;4.93;;;1.13;;
74926;SDS011;63488;48.092;-1.640;2023-08-08T04:07:52;4.80;;;1.42;;
74926;SDS011;63488;48.092;-1.640;2023-08-08T04:10:17;4.45;;;1.30;;
74926;SDS011;63488;48.092;-1.640;2023-08-08T04:12:42;7.38;;;1.48;;
74926;SDS011;63488;48.092;-1.640;2023-08-08T04:15:08;4.55;;;1.05;;
74926;SDS011;63488;48.092;-1.640;2023-08-08T04:17:34;5.03;;;1.33;;
74926;SDS011;63488;48.092;-1.640;2023-08-08T04:19:59;4.57;;;1.40;;
74926;SDS011;63488;48.092;-1.640;2023-08-08T04:22:25;4.13;;;1.10;;
74926;SDS011;63488;48.092;-1.640;2023-08-08T04:24:50;4.15;;;1.20;;
74926;SDS011;63488;48.092;-1.640;2023-08-08T04:27:15;6.50;;;1.33;;
74926;SDS011;63488;48.092;-1.640;2023-08-08T04:29:41;7.15;;;1.50;;
74926;SDS011;63488;48.092;-1.640;2023-08-08T04:32:06;3.38;;;1.10;;
74926;SDS011;63488;48.092;-1.640;2023-08-08T04:34:32;4.50;;;1.52;;
74926;SDS011;63488;48.092;-1.640;2023-08-08T04:36:57;4.63;;;1.33;;
74926;SDS011;63488;48.092;-1.640;2023-08-08T04:39:22;5.13;;;1.35;;
74926;SDS011;63488;48.092;-1.640;2023-08-08T04:41:48;4.28;;;1.35;;
74926;SDS011;63488;48.092;-1.640;2023-08-08T04:44:13;7.10;;;1.50;;
74926;SDS011;63488;48.092;-1.640;2023-08-08T04:46:38;4.25;;;1.33;;
74926;SDS011;63488;48.092;-1.640;2023-08-08T04:49:04;3.13;;;1.50;;
74926;SDS011;63488;48.092;-1.640;2023-08-08T04:51:29;2.00;;;1.00;;
74926;SDS011;63488;48.092;-1.640;2023-08-08T04:53:54;2.33;;;1.08;;
74926;SDS011;63488;48.092;-1.640;2023-08-08T04:56:20;4.05;;;1.40;;
74926;SDS011;63488;48.092;-1.640;2023-08-08T04:58:45;3.95;;;1.50;;
74926;SDS011;63488;48.092;-1.640;2023-08-08T05:01:10;6.97;;;1.35;;
74926;SDS011;63488;48.092;-1.640;2023-08-08T05:03:39;8.38;;;1.40;;
74926;SDS011;63488;48.092;-1.640;2023-08-08T05:06:04;6.25;;;2.03;;
74926;SDS011;63488;48.092;-1.640;2023-08-08T05:08:30;5.22;;;1.30;;
74926;SDS011;63488;48.092;-1.640;2023-08-08T05:10:55;7.68;;;1.20;;
74926;SDS011;63488;48.092;-1.640;2023-08-08T05:13:21;6.03;;;1.40;;
74926;SDS011;63488;48.092;-1.640;2023-08-08T05:15:46;4.30;;;1.25;;
74926;SDS011;63488;48.092;-1.640;2023-08-08T05:18:11;5.18;;;1.27;;
74926;SDS011;63488;48.092;-1.640;2023-08-08T05:20:37;6.88;;;1.40;;
74926;SDS011;63488;48.092;-1.640;2023-08-08T05:23:02;5.90;;;1.50;;
74926;SDS011;63488;48.092;-1.640;2023-08-08T05:25:27;5.13;;;1.20;;
74926;SDS011;63488;48.092;-1.640;2023-08-08T05:27:53;4.25;;;1.42;;
74926;SDS011;63488;48.092;-1.640;2023-08-08T05:30:18;4.95;;;1.20;;
74926;SDS011;63488;48.092;-1.640;2023-08-08T05:32:44;3.60;;;1.30;;
74926;SDS011;63488;48.092;-1.640;2023-08-08T05:35:09;3.67;;;1.10;;
74926;SDS011;63488;48.092;-1.640;2023-08-08T05:37:35;4.95;;;1.40;;
74926;SDS011;63488;48.092;-1.640;2023-08-08T05:40:00;2.70;;;1.33;;
74926;SDS011;63488;48.092;-1.640;2023-08-08T05:42:25;5.80;;;1.55;;
74926;SDS011;63488;48.092;-1.640;2023-08-08T05:44:51;4.43;;;1.50;;
74926;SDS011;63488;48.092;-1.640;2023-08-08T05:47:16;5.22;;;1.30;;
74926;SDS011;63488;48.092;-1.640;2023-08-08T05:49:42;6.00;;;1.52;;
74926;SDS011;63488;48.092;-1.640;2023-08-08T05:52:07;5.80;;;1.50;;
74926;SDS011;63488;48.092;-1.640;2023-08-08T05:54:33;3.78;;;1.35;;
74926;SDS011;63488;48.092;-1.640;2023-08-08T05:56:58;6.32;;;1.80;;
74926;SDS011;63488;48.092;-1.640;2023-08-08T05:59:24;5.82;;;1.75;;
74926;SDS011;63488;48.092;-1.640;2023-08-08T06:01:49;4.68;;;1.90;;
74926;SDS011;63488;48.092;-1.640;2023-08-08T06:04:15;4.43;;;1.55;;
74926;SDS011;63488;48.092;-1.640;2023-08-08T06:06:40;6.50;;;2.20;;
74926;SDS011;63488;48.092;-1.640;2023-08-08T06:09:06;6.50;;;1.42;;
74926;SDS011;63488;48.092;-1.640;2023-08-08T06:11:33;5.28;;;1.92;;
74926;SDS011;63488;48.092;-1.640;2023-08-08T06:13:59;5.90;;;1.73;;
74926;SDS011;63488;48.092;-1.640;2023-08-08T06:16:24;8.52;;;1.83;;
74926;SDS011;63488;48.092;-1.640;2023-08-08T06:18:49;8.52;;;1.90;;
74926;SDS011;63488;48.092;-1.640;2023-08-08T06:21:15;6.85;;;1.63;;
74926;SDS011;63488;48.092;-1.640;2023-08-08T06:23:40;5.55;;;1.70;;
74926;SDS011;63488;48.092;-1.640;2023-08-08T06:26:05;6.63;;;1.90;;
74926;SDS011;63488;48.092;-1.640;2023-08-08T06:28:31;5.78;;;1.70;;
74926;SDS011;63488;48.092;-1.640;2023-08-08T06:30:57;9.00;;;1.77;;
74926;SDS011;63488;48.092;-1.640;2023-08-08T06:33:23;5.28;;;1.95;;
74926;SDS011;63488;48.092;-1.640;2023-08-08T06:35:48;5.75;;;1.70;;
74926;SDS011;63488;48.092;-1.640;2023-08-08T06:38:14;7.13;;;2.22;;
74926;SDS011;63488;48.092;-1.640;2023-08-08T06:40:39;8.45;;;2.17;;
74926;SDS011;63488;48.092;-1.640;2023-08-08T06:43:04;6.82;;;1.85;;
74926;SDS011;63488;48.092;-1.640;2023-08-08T06:45:30;5.32;;;1.88;;
74926;SDS011;63488;48.092;-1.640;2023-08-08T06:47:55;4.97;;;2.10;;
74926;SDS011;63488;48.092;-1.640;2023-08-08T06:50:21;5.28;;;1.95;;
74926;SDS011;63488;48.092;-1.640;2023-08-08T06:52:46;6.70;;;2.30;;
74926;SDS011;63488;48.092;-1.640;2023-08-08T06:55:12;8.73;;;2.60;;
74926;SDS011;63488;48.092;-1.640;2023-08-08T06:57:37;6.03;;;2.30;;
74926;SDS011;63488;48.092;-1.640;2023-08-08T07:00:02;4.95;;;1.75;;
74926;SDS011;63488;48.092;-1.640;2023-08-08T07:02:31;3.95;;;1.90;;
74926;SDS011;63488;48.092;-1.640;2023-08-08T07:04:57;6.03;;;2.38;;
74926;SDS011;63488;48.092;-1.640;2023-08-08T07:07:22;8.50;;;2.25;;
74926;SDS011;63488;48.092;-1.640;2023-08-08T07:09:48;7.07;;;2.03;;
74926;SDS011;63488;48.092;-1.640;2023-08-08T07:12:13;7.10;;;1.98;;
74926;SDS011;63488;48.092;-1.640;2023-08-08T07:14:39;6.10;;;2.05;;
74926;SDS011;63488;48.092;-1.640;2023-08-08T07:17:04;6.22;;;2.10;;
74926;SDS011;63488;48.092;-1.640;2023-08-08T07:19:30;7.28;;;2.22;;
74926;SDS011;63488;48.092;-1.640;2023-08-08T07:21:55;7.03;;;2.00;;
74926;SDS011;63488;48.092;-1.640;2023-08-08T07:24:21;5.05;;;1.98;;
74926;SDS011;63488;48.092;-1.640;2023-08-08T07:26:46;6.43;;;1.95;;
74926;SDS011;63488;48.092;-1.640;2023-08-08T07:29:11;6.53;;;1.70;;
74926;SDS011;63488;48.092;-1.640;2023-08-08T07:31:37;7.47;;;1.95;;
74926;SDS011;63488;48.092;-1.640;2023-08-08T07:34:02;8.10;;;1.80;;
74926;SDS011;63488;48.092;-1.640;2023-08-08T07:36:28;3.85;;;1.65;;
74926;SDS011;63488;48.092;-1.640;2023-08-08T07:38:53;5.10;;;1.77;;
74926;SDS011;63488;48.092;-1.640;2023-08-08T07:41:24;5.75;;;1.50;;
74926;SDS011;63488;48.092;-1.640;2023-08-08T07:43:51;10.27;;;2.20;;
74926;SDS011;63488;48.092;-1.640;2023-08-08T07:46:16;5.57;;;2.20;;
74926;SDS011;63488;48.092;-1.640;2023-08-08T07:48:42;4.93;;;1.90;;
74926;SDS011;63488;48.092;-1.640;2023-08-08T07:51:07;7.70;;;2.10;;
74926;SDS011;63488;48.092;-1.640;2023-08-08T07:53:32;7.15;;;1.80;;
74926;SDS011;63488;48.092;-1.640;2023-08-08T07:55:58;8.20;;;1.70;;
74926;SDS011;63488;48.092;-1.640;2023-08-08T07:58:23;5.05;;;1.67;;
74926;SDS011;63488;48.092;-1.640;2023-08-08T08:00:52;6.13;;;1.52;;
74926;SDS011;63488;48.092;-1.640;2023-08-08T08:03:18;4.93;;;1.30;;
74926;SDS011;63488;48.092;-1.640;2023-08-08T08:05:44;5.65;;;1.70;;
74926;SDS011;63488;48.092;-1.640;2023-08-08T08:08:09;5.85;;;1.70;;
74926;SDS011;63488;48.092;-1.640;2023-08-08T08:10:34;6.82;;;1.67;;
74926;SDS011;63488;48.092;-1.640;2023-08-08T08:13:00;3.72;;;1.33;;
74926;SDS011;63488;48.092;-1.640;2023-08-08T08:15:25;2.65;;;1.40;;
74926;SDS011;63488;48.092;-1.640;2023-08-08T08:17:51;7.15;;;1.40;;
74926;SDS011;63488;48.092;-1.640;2023-08-08T08:20:16;5.25;;;1.63;;
74926;SDS011;63488;48.092;-1.640;2023-08-08T08:22:42;5.53;;;1.42;;
74926;SDS011;63488;48.092;-1.640;2023-08-08T08:25:07;6.95;;;1.65;;
74926;SDS011;63488;48.092;-1.640;2023-08-08T08:27:37;4.57;;;1.52;;
74926;SDS011;63488;48.092;-1.640;2023-08-08T08:30:03;6.13;;;1.40;;
74926;SDS011;63488;48.092;-1.640;2023-08-08T08:32:31;6.07;;;1.40;;
74926;SDS011;63488;48.092;-1.640;2023-08-08T08:34:56;4.57;;;1.70;;
74926;SDS011;63488;48.092;-1.640;2023-08-08T08:37:22;5.40;;;1.60;;
74926;SDS011;63488;48.092;-1.640;2023-08-08T08:39:47;6.05;;;1.58;;
74926;SDS011;63488;48.092;-1.640;2023-08-08T08:42:12;6.15;;;1.40;;
74926;SDS011;63488;48.092;-1.640;2023-08-08T08:44:39;3.88;;;1.45;;
74926;SDS011;63488;48.092;-1.640;2023-08-08T08:47:05;5.05;;;1.48;;
74926;SDS011;63488;48.092;-1.640;2023-08-08T08:49:35;7.65;;;1.88;;
74926;SDS011;63488;48.092;-1.640;2023-08-08T08:52:03;5.85;;;1.60;;
74926;SDS011;63488;48.092;-1.640;2023-08-08T08:54:30;5.80;;;1.85;;
74926;SDS011;63488;48.092;-1.640;2023-08-08T08:56:55;8.27;;;1.30;;
74926;SDS011;63488;48.092;-1.640;2023-08-08T08:59:22;4.10;;;1.40;;
74926;SDS011;63488;48.092;-1.640;2023-08-08T09:01:47;6.35;;;1.42;;
74926;SDS011;63488;48.092;-1.640;2023-08-08T09:04:14;3.50;;;1.23;;
74926;SDS011;63488;48.092;-1.640;2023-08-08T09:06:42;4.85;;;1.30;;
74926;SDS011;63488;48.092;-1.640;2023-08-08T09:09:07;3.50;;;1.27;;
74926;SDS011;63488;48.092;-1.640;2023-08-08T09:11:33;7.10;;;1.50;;
74926;SDS011;63488;48.092;-1.640;2023-08-08T09:13:59;5.97;;;1.50;;
74926;SDS011;63488;48.092;-1.640;2023-08-08T09:16:25;6.78;;;1.55;;
74926;SDS011;63488;48.092;-1.640;2023-08-08T09:18:50;7.28;;;1.50;;
74926;SDS011;63488;48.092;-1.640;2023-08-08T09:21:17;3.95;;;1.42;;
74926;SDS011;63488;48.092;-1.640;2023-08-08T09:23:43;4.65;;;1.23;;
74926;SDS011;63488;48.092;-1.640;2023-08-08T09:26:09;5.47;;;1.20;;
74926;SDS011;63488;48.092;-1.640;2023-08-08T09:28:35;4.65;;;1.20;;
74926;SDS011;63488;48.092;-1.640;2023-08-08T09:31:00;4.18;;;1.27;;
74926;SDS011;63488;48.092;-1.640;2023-08-08T09:33:28;4.28;;;1.23;;
74926;SDS011;63488;48.092;-1.640;2023-08-08T09:35:53;3.35;;;1.27;;
74926;SDS011;63488;48.092;-1.640;2023-08-08T09:38:20;5.72;;;1.35;;
74926;SDS011;63488;48.092;-1.640;2023-08-08T09:40:45;4.55;;;1.33;;
74926;SDS011;63488;48.092;-1.640;2023-08-08T09:43:11;4.32;;;1.15;;
74926;SDS011;63488;48.092;-1.640;2023-08-08T09:45:37;4.72;;;1.45;;
74926;SDS011;63488;48.092;-1.640;2023-08-08T09:48:03;3.65;;;1.20;;
74926;SDS011;63488;48.092;-1.640;2023-08-08T09:50:28;5.78;;;1.77;;
74926;SDS011;63488;48.092;-1.640;2023-08-08T09:52:54;4.45;;;1.10;;
74926;SDS011;63488;48.092;-1.640;2023-08-08T09:55:20;6.22;;;1.67;;
74926;SDS011;63488;48.092;-1.640;2023-08-08T09:57:46;3.88;;;0.95;;
74926;SDS011;63488;48.092;-1.640;2023-08-08T10:00:12;4.15;;;1.45;;
74926;SDS011;63488;48.092;-1.640;2023-08-08T10:02:44;5.47;;;1.37;;
74926;SDS011;63488;48.092;-1.640;2023-08-08T10:05:10;4.93;;;1.15;;
74926;SDS011;63488;48.092;-1.640;2023-08-08T10:07:38;3.25;;;0.85;;
74926;SDS011;63488;48.092;-1.640;2023-08-08T10:10:04;5.80;;;1.02;;
74926;SDS011;63488;48.092;-1.640;2023-08-08T10:12:29;3.92;;;1.00;;
74926;SDS011;63488;48.092;-1.640;2023-08-08T10:14:55;4.57;;;1.15;;
74926;SDS011;63488;48.092;-1.640;2023-08-08T10:17:21;3.70;;;1.20;;
74926;SDS011;63488;48.092;-1.640;2023-08-08T10:19:55;3.70;;;1.13;;
74926;SDS011;63488;48.092;-1.640;2023-08-08T10:22:21;3.28;;;1.10;;
74926;SDS011;63488;48.092;-1.640;2023-08-08T10:24:50;2.90;;;1.00;;
74926;SDS011;63488;48.092;-1.640;2023-08-08T10:27:16;4.30;;;1.17;;
74926;SDS011;63488;48.092;-1.640;2023-08-08T10:29:52;2.65;;;1.13;;
74926;SDS011;63488;48.092;-1.640;2023-08-08T10:32:22;6.75;;;1.30;;
74926;SDS011;63488;48.092;-1.640;2023-08-08T10:34:49;3.90;;;0.98;;
74926;SDS011;63488;48.092;-1.640;2023-08-08T10:37:17;3.20;;;0.90;;
74926;SDS011;63488;48.092;-1.640;2023-08-08T10:39:57;6.53;;;1.20;;
74926;SDS011;63488;48.092;-1.640;2023-08-08T10:42:24;3.40;;;1.00;;
74926;SDS011;63488;48.092;-1.640;2023-08-08T10:44:53;3.40;;;0.90;;
74926;SDS011;63488;48.092;-1.640;2023-08-08T10:49:44;3.53;;;1.40;;
74926;SDS011;63488;48.092;-1.640;2023-08-08T10:52:13;3.05;;;1.20;;
74926;SDS011;63488;48.092;-1.640;2023-08-08T10:54:39;4.60;;;1.20;;
74926;SDS011;63488;48.092;-1.640;2023-08-08T10:57:16;3.50;;;0.93;;
74926;SDS011;63488;48.092;-1.640;2023-08-08T10:59:44;3.33;;;1.13;;
74926;SDS011;63488;48.092;-1.640;2023-08-08T11:02:09;2.38;;;0.88;;
74926;SDS011;63488;48.092;-1.640;2023-08-08T11:04:34;6.20;;;0.90;;
74926;SDS011;63488;48.092;-1.640;2023-08-08T11:07:00;2.42;;;1.00;;
74926;SDS011;63488;48.092;-1.640;2023-08-08T11:09:26;5.80;;;1.17;;
74926;SDS011;63488;48.092;-1.640;2023-08-08T11:11:52;3.38;;;1.13;;
74926;SDS011;63488;48.092;-1.640;2023-08-08T11:14:20;2.90;;;1.00;;
74926;SDS011;63488;48.092;-1.640;2023-08-08T11:16:47;4.47;;;1.00;;
74926;SDS011;63488;48.092;-1.640;2023-08-08T11:19:13;3.58;;;1.00;;
74926;SDS011;63488;48.092;-1.640;2023-08-08T11:21:42;3.97;;;1.10;;
74926;SDS011;63488;48.092;-1.640;2023-08-08T11:24:08;3.03;;;0.90;;
74926;SDS011;63488;48.092;-1.640;2023-08-08T11:26:34;4.38;;;0.95;;
74926;SDS011;63488;48.092;-1.640;2023-08-08T11:29:00;2.20;;;0.77;;
74926;SDS011;63488;48.092;-1.640;2023-08-08T11:31:26;2.78;;;1.08;;
74926;SDS011;63488;48.092;-1.640;2023-08-08T11:33:52;4.00;;;1.00;;
74926;SDS011;63488;48.092;-1.640;2023-08-08T11:36:17;1.33;;;0.82;;
74926;SDS011;63488;48.092;-1.640;2023-08-08T11:38:43;3.05;;;0.90;;
74926;SDS011;63488;48.092;-1.640;2023-08-08T11:41:10;2.55;;;0.80;;
74926;SDS011;63488;48.092;-1.640;2023-08-08T11:43:36;3.83;;;0.90;;
74926;SDS011;63488;48.092;-1.640;2023-08-08T11:46:02;3.10;;;0.95;;
74926;SDS011;63488;48.092;-1.640;2023-08-08T11:48:28;3.83;;;1.05;;
74926;SDS011;63488;48.092;-1.640;2023-08-08T11:50:53;4.10;;;0.90;;
74926;SDS011;63488;48.092;-1.640;2023-08-08T11:53:19;4.22;;;1.00;;
74926;SDS011;63488;48.092;-1.640;2023-08-08T11:55:45;4.13;;;0.90;;
74926;SDS011;63488;48.092;-1.640;2023-08-08T11:58:14;2.13;;;1.00;;
74926;SDS011;63488;48.092;-1.640;2023-08-08T12:00:39;2.78;;;1.00;;
74926;SDS011;63488;48.092;-1.640;2023-08-08T12:03:05;2.70;;;0.98;;
74926;SDS011;63488;48.092;-1.640;2023-08-08T12:05:36;6.60;;;1.02;;
74926;SDS011;63488;48.092;-1.640;2023-08-08T12:08:04;5.00;;;1.05;;
74926;SDS011;63488;48.092;-1.640;2023-08-08T12:10:29;2.28;;;1.17;;
74926;SDS011;63488;48.092;-1.640;2023-08-08T12:12:55;3.50;;;1.15;;
74926;SDS011;63488;48.092;-1.640;2023-08-08T12:15:22;2.15;;;0.90;;
74926;SDS011;63488;48.092;-1.640;2023-08-08T12:17:48;3.25;;;0.90;;
74926;SDS011;63488;48.092;-1.640;2023-08-08T12:20:14;3.83;;;0.90;;
74926;SDS011;63488;48.092;-1.640;2023-08-08T12:22:39;6.32;;;1.30;;
74926;SDS011;63488;48.092;-1.640;2023-08-08T12:25:05;3.60;;;0.93;;
74926;SDS011;63488;48.092;-1.640;2023-08-08T12:27:30;3.97;;;1.00;;
74926;SDS011;63488;48.092;-1.640;2023-08-08T12:29:56;3.55;;;1.10;;
74926;SDS011;63488;48.092;-1.640;2023-08-08T12:32:21;1.98;;;0.90;;
74926;SDS011;63488;48.092;-1.640;2023-08-08T12:34:50;3.38;;;1.10;;
74926;SDS011;63488;48.092;-1.640;2023-08-08T12:37:16;2.67;;;0.75;;
74926;SDS011;63488;48.092;-1.640;2023-08-08T12:39:41;3.75;;;1.30;;
74926;SDS011;63488;48.092;-1.640;2023-08-08T12:42:06;2.35;;;1.15;;
74926;SDS011;63488;48.092;-1.640;2023-08-08T12:44:32;5.20;;;1.38;;
74926;SDS011;63488;48.092;-1.640;2023-08-08T12:46:57;2.50;;;1.00;;
74926;SDS011;63488;48.092;-1.640;2023-08-08T12:49:23;3.45;;;1.25;;
74926;SDS011;63488;48.092;-1.640;2023-08-08T12:51:49;2.25;;;1.13;;
74926;SDS011;63488;48.092;-1.640;2023-08-08T12:54:15;3.13;;;1.13;;
74926;SDS011;63488;48.092;-1.640;2023-08-08T12:56:40;3.28;;;1.20;;
74926;SDS011;63488;48.092;-1.640;2023-08-08T12:59:05;4.07;;;1.13;;
74926;SDS011;63488;48.092;-1.640;2023-08-08T13:01:31;4.50;;;1.17;;
74926;SDS011;63488;48.092;-1.640;2023-08-08T13:03:56;5.25;;;1.20;;
74926;SDS011;63488;48.092;-1.640;2023-08-08T13:06:21;3.15;;;1.00;;
74926;SDS011;63488;48.092;-1.640;2023-08-08T13:08:47;4.45;;;1.25;;
74926;SDS011;63488;48.092;-1.640;2023-08-08T13:11:12;2.78;;;0.90;;
74926;SDS011;63488;48.092;-1.640;2023-08-08T13:13:37;3.03;;;1.10;;
74926;SDS011;63488;48.092;-1.640;2023-08-08T13:16:03;5.90;;;1.15;;
74926;SDS011;63488;48.092;-1.640;2023-08-08T13:18:29;3.58;;;1.10;;
74926;SDS011;63488;48.092;-1.640;2023-08-08T13:20:55;3.38;;;0.98;;
74926;SDS011;63488;48.092;-1.640;2023-08-08T13:23:20;4.18;;;1.17;;
74926;SDS011;63488;48.092;-1.640;2023-08-08T13:25:46;4.90;;;1.48;;
74926;SDS011;63488;48.092;-1.640;2023-08-08T13:28:12;3.33;;;1.17;;
74926;SDS011;63488;48.092;-1.640;2023-08-08T13:30:37;2.88;;;1.25;;
74926;SDS011;63488;48.092;-1.640;2023-08-08T13:33:03;2.50;;;0.90;;
74926;SDS011;63488;48.092;-1.640;2023-08-08T13:35:28;2.67;;;1.00;;
74926;SDS011;63488;48.092;-1.640;2023-08-08T13:37:55;3.50;;;1.10;;
74926;SDS011;63488;48.092;-1.640;2023-08-08T13:40:20;2.63;;;1.10;;
74926;SDS011;63488;48.092;-1.640;2023-08-08T13:42:46;3.97;;;1.00;;
74926;SDS011;63488;48.092;-1.640;2023-08-08T13:45:17;3.70;;;1.10;;
74926;SDS011;63488;48.092;-1.640;2023-08-08T13:50:07;3.63;;;1.10;;
74926;SDS011;63488;48.092;-1.640;2023-08-08T13:52:33;3.10;;;1.10;;
74926;SDS011;63488;48.092;-1.640;2023-08-08T13:54:58;3.85;;;1.25;;
74926;SDS011;63488;48.092;-1.640;2023-08-08T13:57:24;3.78;;;1.17;;
74926;SDS011;63488;48.092;-1.640;2023-08-08T13:59:49;2.95;;;1.02;;
74926;SDS011;63488;48.092;-1.640;2023-08-08T14:02:14;5.72;;;1.38;;
74926;SDS011;63488;48.092;-1.640;2023-08-08T14:04:42;5.60;;;1.13;;
74926;SDS011;63488;48.092;-1.640;2023-08-08T14:07:07;4.57;;;1.10;;
74926;SDS011;63488;48.092;-1.640;2023-08-08T14:09:33;3.17;;;1.27;;
74926;SDS011;63488;48.092;-1.640;2023-08-08T14:11:58;4.28;;;1.75;;
74926;SDS011;63488;48.092;-1.640;2023-08-08T14:14:24;2.13;;;1.00;;
74926;SDS011;63488;48.092;-1.640;2023-08-08T14:16:49;1.52;;;0.85;;
74926;SDS011;63488;48.092;-1.640;2023-08-08T14:19:15;3.28;;;1.20;;
74926;SDS011;63488;48.092;-1.640;2023-08-08T14:21:42;4.65;;;1.27;;
74926;SDS011;63488;48.092;-1.640;2023-08-08T14:24:07;5.55;;;1.55;;
74926;SDS011;63488;48.092;-1.640;2023-08-08T14:26:32;3.60;;;1.23;;
74926;SDS011;63488;48.092;-1.640;2023-08-08T14:28:58;2.78;;;1.10;;